sensor_id;sensor_type;location;lat;lon;timestamp;temperature;humidity
7378;DHT22;3730;50.856;12.776;2024-03-29T08:42:04;10.80;1.00
7378;DHT22;3730;50.856;12.776;2024-03-29T08:46:59;10.50;1.00
7378;DHT22;3730;50.856;12.776;2024-03-29T08:49:27;10.90;1.00
7378;DHT22;3730;50.856;12.776;2024-03-29T08:51:52;10.90;1.00
7378;DHT22;3730;50.856;12.776;2024-03-29T08:54:18;10.90;1.00
7378;DHT22;3730;50.856;12.776;2024-03-29T08:56:43;10.90;1.00
7378;DHT22;3730;50.856;12.776;2024-03-29T09:01:38;11.00;1.00
7378;DHT22;3730;50.856;12.776;2024-03-29T09:04:04;11.10;1.00
7378;DHT22;3730;50.856;12.776;2024-03-29T09:08:58;10.90;1.00
7378;DHT22;3730;50.856;12.776;2024-03-29T09:11:24;11.00;1.00
7378;DHT22;3730;50.856;12.776;2024-03-29T09:13:50;11.30;1.00
7378;DHT22;3730;50.856;12.776;2024-03-29T09:16:15;11.00;1.00
7378;DHT22;3730;50.856;12.776;2024-03-29T09:18:41;10.90;1.00
7378;DHT22;3730;50.856;12.776;2024-03-29T09:21:06;11.10;1.00
7378;DHT22;3730;50.856;12.776;2024-03-29T09:23:34;10.90;1.00
7378;DHT22;3730;50.856;12.776;2024-03-29T09:28:25;11.00;1.00
7378;DHT22;3730;50.856;12.776;2024-03-29T09:30:57;11.10;1.00
7378;DHT22;3730;50.856;12.776;2024-03-29T09:33:23;11.00;1.00
7378;DHT22;3730;50.856;12.776;2024-03-29T09:35:52;11.30;1.00
7378;DHT22;3730;50.856;12.776;2024-03-29T09:40:45;11.30;1.00
7378;DHT22;3730;50.856;12.776;2024-03-29T09:43:14;11.20;1.00
7378;DHT22;3730;50.856;12.776;2024-03-29T09:45:40;11.20;1.00
7378;DHT22;3730;50.856;12.776;2024-03-29T09:48:07;11.40;1.00
7378;DHT22;3730;50.856;12.776;2024-03-29T09:50:36;11.30;1.00
7378;DHT22;3730;50.856;12.776;2024-03-29T09:53:05;11.30;1.00
7378;DHT22;3730;50.856;12.776;2024-03-29T09:55:30;11.40;1.00
7378;DHT22;3730;50.856;12.776;2024-03-29T09:57:57;11.40;1.00
7378;DHT22;3730;50.856;12.776;2024-03-29T10:00:23;11.30;1.00
7378;DHT22;3730;50.856;12.776;2024-03-29T10:02:50;11.60;1.00
7378;DHT22;3730;50.856;12.776;2024-03-29T10:05:18;11.80;1.00
7378;DHT22;3730;50.856;12.776;2024-03-29T10:07:45;11.70;1.00
7378;DHT22;3730;50.856;12.776;2024-03-29T10:10:11;11.80;1.00
7378;DHT22;3730;50.856;12.776;2024-03-29T10:12:37;11.80;1.00
7378;DHT22;3730;50.856;12.776;2024-03-29T10:15:03;12.20;1.00
7378;DHT22;3730;50.856;12.776;2024-03-29T10:22:42;12.40;1.00
7378;DHT22;3730;50.856;12.776;2024-03-29T10:25:08;12.20;1.00
7378;DHT22;3730;50.856;12.776;2024-03-29T10:27:34;12.40;1.00
7378;DHT22;3730;50.856;12.776;2024-03-29T10:30:00;12.30;1.00
7378;DHT22;3730;50.856;12.776;2024-03-29T10:32:25;12.50;1.00
7378;DHT22;3730;50.856;12.776;2024-03-29T10:34:51;12.30;1.00
7378;DHT22;3730;50.856;12.776;2024-03-29T10:37:18;12.50;1.00
7378;DHT22;3730;50.856;12.776;2024-03-29T10:39:51;12.70;1.00
7378;DHT22;3730;50.856;12.776;2024-03-29T10:42:19;12.70;1.00
7378;DHT22;3730;50.856;12.776;2024-03-29T10:44:48;12.70;1.00
7378;DHT22;3730;50.856;12.776;2024-03-29T10:47:18;12.70;1.00
7378;DHT22;3730;50.856;12.776;2024-03-29T10:49:48;12.70;1.00
7378;DHT22;3730;50.856;12.776;2024-03-29T10:52:14;12.80;1.00
7378;DHT22;3730;50.856;12.776;2024-03-29T10:54:45;12.60;1.00
7378;DHT22;3730;50.856;12.776;2024-03-29T10:57:22;13.10;1.00
7378;DHT22;3730;50.856;12.776;2024-03-29T11:02:37;12.80;1.00
7378;DHT22;3730;50.856;12.776;2024-03-29T11:05:09;13.00;1.00
7378;DHT22;3730;50.856;12.776;2024-03-29T11:07:39;13.00;1.00
7378;DHT22;3730;50.856;12.776;2024-03-29T11:10:06;13.20;1.00
7378;DHT22;3730;50.856;12.776;2024-03-29T11:12:45;13.20;1.00
7378;DHT22;3730;50.856;12.776;2024-03-29T11:15:25;13.30;1.00
7378;DHT22;3730;50.856;12.776;2024-03-29T11:17:55;13.10;1.00
7378;DHT22;3730;50.856;12.776;2024-03-29T11:20:25;13.30;1.00
7378;DHT22;3730;50.856;12.776;2024-03-29T11:22:59;12.80;1.00
7378;DHT22;3730;50.856;12.776;2024-03-29T11:25:41;13.00;1.00
7378;DHT22;3730;50.856;12.776;2024-03-29T11:28:07;13.20;1.00
7378;DHT22;3730;50.856;12.776;2024-03-29T11:30:48;13.20;1.00
7378;DHT22;3730;50.856;12.776;2024-03-29T11:33:33;13.10;1.00
7378;DHT22;3730;50.856;12.776;2024-03-29T11:36:13;13.40;1.00
7378;DHT22;3730;50.856;12.776;2024-03-29T11:38:40;13.30;1.00
7378;DHT22;3730;50.856;12.776;2024-03-29T11:41:14;13.20;1.00
7378;DHT22;3730;50.856;12.776;2024-03-29T11:43:40;13.30;1.00
7378;DHT22;3730;50.856;12.776;2024-03-29T11:46:09;13.50;1.00
7378;DHT22;3730;50.856;12.776;2024-03-29T11:48:35;13.30;1.00
7378;DHT22;3730;50.856;12.776;2024-03-29T11:51:02;13.40;1.00
7378;DHT22;3730;50.856;12.776;2024-03-29T11:53:28;12.90;1.00
7378;DHT22;3730;50.856;12.776;2024-03-29T11:55:56;12.90;1.00
7378;DHT22;3730;50.856;12.776;2024-03-29T11:58:23;13.00;1.00
7378;DHT22;3730;50.856;12.776;2024-03-29T12:00:50;13.00;1.00
7378;DHT22;3730;50.856;12.776;2024-03-29T12:03:17;12.80;1.00
7378;DHT22;3730;50.856;12.776;2024-03-29T12:05:44;12.70;1.00
7378;DHT22;3730;50.856;12.776;2024-03-29T12:08:10;12.50;1.00
7378;DHT22;3730;50.856;12.776;2024-03-29T12:10:37;12.40;1.00
7378;DHT22;3730;50.856;12.776;2024-03-29T12:13:05;12.60;1.00
7378;DHT22;3730;50.856;12.776;2024-03-29T12:15:32;12.30;1.00
7378;DHT22;3730;50.856;12.776;2024-03-29T12:17:59;12.10;1.00
7378;DHT22;3730;50.856;12.776;2024-03-29T12:20:25;12.50;1.00
7378;DHT22;3730;50.856;12.776;2024-03-29T12:22:51;13.00;1.00
7378;DHT22;3730;50.856;12.776;2024-03-29T12:27:44;12.90;1.00
7378;DHT22;3730;50.856;12.776;2024-03-29T12:30:12;12.80;1.00
7378;DHT22;3730;50.856;12.776;2024-03-29T12:32:39;12.80;1.00
7378;DHT22;3730;50.856;12.776;2024-03-29T12:35:12;13.00;1.00
7378;DHT22;3730;50.856;12.776;2024-03-29T12:37:38;12.90;1.00
7378;DHT22;3730;50.856;12.776;2024-03-29T12:40:07;13.20;1.00
7378;DHT22;3730;50.856;12.776;2024-03-29T12:42:40;13.20;1.00
7378;DHT22;3730;50.856;12.776;2024-03-29T12:45:07;13.60;1.00
7378;DHT22;3730;50.856;12.776;2024-03-29T12:47:37;13.40;1.00
7378;DHT22;3730;50.856;12.776;2024-03-29T12:50:03;13.40;1.00
7378;DHT22;3730;50.856;12.776;2024-03-29T12:52:39;13.50;1.00
7378;DHT22;3730;50.856;12.776;2024-03-29T12:55:05;13.50;1.00
7378;DHT22;3730;50.856;12.776;2024-03-29T12:59:59;14.00;1.00
7378;DHT22;3730;50.856;12.776;2024-03-29T13:02:24;13.80;1.00
7378;DHT22;3730;50.856;12.776;2024-03-29T13:07:16;13.70;1.00
7378;DHT22;3730;50.856;12.776;2024-03-29T13:12:08;13.70;1.00
7378;DHT22;3730;50.856;12.776;2024-03-29T13:14:34;13.90;1.00
7378;DHT22;3730;50.856;12.776;2024-03-29T13:16:59;13.80;1.00
7378;DHT22;3730;50.856;12.776;2024-03-29T13:21:51;14.20;1.00
7378;DHT22;3730;50.856;12.776;2024-03-29T13:51:15;14.70;1.00
7378;DHT22;3730;50.856;12.776;2024-03-29T13:53:42;15.10;1.00
7378;DHT22;3730;50.856;12.776;2024-03-29T13:56:07;14.80;1.00
7378;DHT22;3730;50.856;12.776;2024-03-29T13:58:33;15.00;1.00
7378;DHT22;3730;50.856;12.776;2024-03-29T14:00:59;14.90;1.00
7378;DHT22;3730;50.856;12.776;2024-03-29T14:03:26;15.40;1.00
7378;DHT22;3730;50.856;12.776;2024-03-29T14:05:52;15.40;1.00
7378;DHT22;3730;50.856;12.776;2024-03-29T14:10:43;15.50;1.00
7378;DHT22;3730;50.856;12.776;2024-03-29T14:13:09;15.40;1.00
7378;DHT22;3730;50.856;12.776;2024-03-29T14:15:35;15.10;1.00
7378;DHT22;3730;50.856;12.776;2024-03-29T14:18:00;15.40;1.00
7378;DHT22;3730;50.856;12.776;2024-03-29T14:20:26;15.20;1.00
7378;DHT22;3730;50.856;12.776;2024-03-29T14:22:51;15.30;1.00
7378;DHT22;3730;50.856;12.776;2024-03-29T14:25:24;15.40;1.00
7378;DHT22;3730;50.856;12.776;2024-03-29T14:27:49;15.20;1.00
7378;DHT22;3730;50.856;12.776;2024-03-29T14:30:23;15.00;1.00
7378;DHT22;3730;50.856;12.776;2024-03-29T14:32:51;15.00;1.00
7378;DHT22;3730;50.856;12.776;2024-03-29T14:35:17;15.00;1.00
7378;DHT22;3730;50.856;12.776;2024-03-29T14:37:46;15.30;1.00
7378;DHT22;3730;50.856;12.776;2024-03-29T14:40:12;15.20;1.00
7378;DHT22;3730;50.856;12.776;2024-03-29T14:42:42;15.20;1.00
7378;DHT22;3730;50.856;12.776;2024-03-29T14:45:08;15.10;1.00
7378;DHT22;3730;50.856;12.776;2024-03-29T14:50:05;15.70;1.00
7378;DHT22;3730;50.856;12.776;2024-03-29T14:52:34;15.10;1.00
7378;DHT22;3730;50.856;12.776;2024-03-29T14:57:25;15.10;1.00
7378;DHT22;3730;50.856;12.776;2024-03-29T14:59:51;15.20;1.00
7378;DHT22;3730;50.856;12.776;2024-03-29T15:02:17;15.40;1.00
7378;DHT22;3730;50.856;12.776;2024-03-29T15:04:43;15.30;1.00
7378;DHT22;3730;50.856;12.776;2024-03-29T15:07:08;15.50;1.00
7378;DHT22;3730;50.856;12.776;2024-03-29T15:09:34;15.30;1.00
7378;DHT22;3730;50.856;12.776;2024-03-29T15:19:21;15.40;1.00
7378;DHT22;3730;50.856;12.776;2024-03-29T17:41:17;14.50;1.00
7378;DHT22;3730;50.856;12.776;2024-03-29T17:46:09;14.00;1.00
7378;DHT22;3730;50.856;12.776;2024-03-29T17:48:34;14.50;1.00
7378;DHT22;3730;50.856;12.776;2024-03-29T17:51:00;14.40;1.00
7378;DHT22;3730;50.856;12.776;2024-03-29T17:53:26;14.50;1.00
7378;DHT22;3730;50.856;12.776;2024-03-29T17:55:51;14.20;1.00
7378;DHT22;3730;50.856;12.776;2024-03-29T17:58:17;14.40;1.00
7378;DHT22;3730;50.856;12.776;2024-03-29T18:03:08;14.20;1.00
7378;DHT22;3730;50.856;12.776;2024-03-29T18:05:34;14.20;1.00
7378;DHT22;3730;50.856;12.776;2024-03-29T18:07:59;14.40;1.00
7378;DHT22;3730;50.856;12.776;2024-03-29T18:10:25;14.10;1.00
7378;DHT22;3730;50.856;12.776;2024-03-29T18:12:51;14.20;1.00
7378;DHT22;3730;50.856;12.776;2024-03-29T18:15:16;14.00;1.00
7378;DHT22;3730;50.856;12.776;2024-03-29T18:17:42;13.80;1.00
7378;DHT22;3730;50.856;12.776;2024-03-29T18:20:08;14.20;1.00
7378;DHT22;3730;50.856;12.776;2024-03-29T18:22:34;13.90;1.00
7378;DHT22;3730;50.856;12.776;2024-03-29T18:25:00;14.10;1.00
7378;DHT22;3730;50.856;12.776;2024-03-29T18:27:25;14.10;1.00
7378;DHT22;3730;50.856;12.776;2024-03-29T18:29:51;13.90;1.00
7378;DHT22;3730;50.856;12.776;2024-03-29T18:34:42;14.30;1.00
7378;DHT22;3730;50.856;12.776;2024-03-29T18:42:00;13.90;1.00
7378;DHT22;3730;50.856;12.776;2024-03-29T18:44:25;14.20;1.00
7378;DHT22;3730;50.856;12.776;2024-03-29T18:49:17;14.00;1.00
7378;DHT22;3730;50.856;12.776;2024-03-29T18:51:42;13.70;1.00
7378;DHT22;3730;50.856;12.776;2024-03-29T18:54:08;13.90;1.00
7378;DHT22;3730;50.856;12.776;2024-03-29T18:56:33;14.00;1.00
7378;DHT22;3730;50.856;12.776;2024-03-29T18:59:00;14.20;1.00
7378;DHT22;3730;50.856;12.776;2024-03-29T19:01:25;14.10;1.00
7378;DHT22;3730;50.856;12.776;2024-03-29T19:03:52;14.10;1.00
7378;DHT22;3730;50.856;12.776;2024-03-29T19:06:17;14.20;1.00
7378;DHT22;3730;50.856;12.776;2024-03-29T19:08:47;14.20;1.00
7378;DHT22;3730;50.856;12.776;2024-03-29T19:11:12;13.90;1.00
7378;DHT22;3730;50.856;12.776;2024-03-29T19:13:38;13.90;1.00
7378;DHT22;3730;50.856;12.776;2024-03-29T19:16:04;14.00;1.00
7378;DHT22;3730;50.856;12.776;2024-03-29T19:18:29;14.10;1.00
7378;DHT22;3730;50.856;12.776;2024-03-29T19:20:55;13.80;1.00
7378;DHT22;3730;50.856;12.776;2024-03-29T19:23:20;13.70;1.00
7378;DHT22;3730;50.856;12.776;2024-03-29T19:30:38;13.70;1.00
7378;DHT22;3730;50.856;12.776;2024-03-29T19:33:04;13.70;1.00
7378;DHT22;3730;50.856;12.776;2024-03-29T19:35:30;13.70;1.00
7378;DHT22;3730;50.856;12.776;2024-03-29T19:37:56;13.80;1.00
7378;DHT22;3730;50.856;12.776;2024-03-29T19:40:22;13.90;1.00
7378;DHT22;3730;50.856;12.776;2024-03-29T19:42:48;13.70;1.00
7378;DHT22;3730;50.856;12.776;2024-03-29T19:45:14;13.40;1.00
7378;DHT22;3730;50.856;12.776;2024-03-29T19:47:40;13.70;1.00
7378;DHT22;3730;50.856;12.776;2024-03-29T19:50:05;13.60;1.00
7378;DHT22;3730;50.856;12.776;2024-03-29T19:52:31;13.50;1.00
7378;DHT22;3730;50.856;12.776;2024-03-29T19:54:57;13.60;1.00
7378;DHT22;3730;50.856;12.776;2024-03-29T19:57:22;13.60;1.00
7378;DHT22;3730;50.856;12.776;2024-03-29T19:59:48;13.40;1.00
7378;DHT22;3730;50.856;12.776;2024-03-29T20:02:14;13.20;1.00
7378;DHT22;3730;50.856;12.776;2024-03-29T20:07:06;13.30;1.00
7378;DHT22;3730;50.856;12.776;2024-03-29T20:09:37;13.50;1.00
7378;DHT22;3730;50.856;12.776;2024-03-29T20:14:29;13.50;1.00
7378;DHT22;3730;50.856;12.776;2024-03-29T20:16:56;13.30;1.00
7378;DHT22;3730;50.856;12.776;2024-03-29T20:19:21;13.20;1.00
7378;DHT22;3730;50.856;12.776;2024-03-29T20:21:55;13.40;1.00
7378;DHT22;3730;50.856;12.776;2024-03-29T20:43:55;13.50;1.00
7378;DHT22;3730;50.856;12.776;2024-03-29T20:46:20;13.20;1.00
7378;DHT22;3730;50.856;12.776;2024-03-29T20:48:46;13.30;1.00
7378;DHT22;3730;50.856;12.776;2024-03-29T20:51:12;13.40;1.00
7378;DHT22;3730;50.856;12.776;2024-03-29T20:53:37;13.40;1.00
7378;DHT22;3730;50.856;12.776;2024-03-29T20:56:07;13.50;1.00
7378;DHT22;3730;50.856;12.776;2024-03-29T20:58:32;13.30;1.00
7378;DHT22;3730;50.856;12.776;2024-03-29T21:00:58;13.30;1.00
7378;DHT22;3730;50.856;12.776;2024-03-29T21:03:27;13.30;1.00
7378;DHT22;3730;50.856;12.776;2024-03-29T21:06:11;13.40;1.00
7378;DHT22;3730;50.856;12.776;2024-03-29T21:08:37;13.10;1.00
7378;DHT22;3730;50.856;12.776;2024-03-29T21:11:03;13.30;1.00
7378;DHT22;3730;50.856;12.776;2024-03-29T21:13:29;13.10;1.00
7378;DHT22;3730;50.856;12.776;2024-03-29T21:15:56;12.80;1.00
7378;DHT22;3730;50.856;12.776;2024-03-29T21:18:21;13.30;1.00
7378;DHT22;3730;50.856;12.776;2024-03-29T21:20:47;13.20;1.00
7378;DHT22;3730;50.856;12.776;2024-03-29T21:23:14;13.10;1.00
7378;DHT22;3730;50.856;12.776;2024-03-29T21:25:39;13.10;1.00
7378;DHT22;3730;50.856;12.776;2024-03-29T21:28:05;12.90;1.00
7378;DHT22;3730;50.856;12.776;2024-03-29T21:30:31;13.00;1.00
7378;DHT22;3730;50.856;12.776;2024-03-29T21:32:58;13.00;1.00
7378;DHT22;3730;50.856;12.776;2024-03-29T21:35:24;13.10;1.00
7378;DHT22;3730;50.856;12.776;2024-03-29T21:37:51;12.90;1.00
7378;DHT22;3730;50.856;12.776;2024-03-29T21:40:17;13.00;1.00
7378;DHT22;3730;50.856;12.776;2024-03-29T21:42:42;12.60;1.00
7378;DHT22;3730;50.856;12.776;2024-03-29T21:45:08;12.70;1.00
7378;DHT22;3730;50.856;12.776;2024-03-29T21:47:34;12.80;1.00
7378;DHT22;3730;50.856;12.776;2024-03-29T21:50:04;12.80;1.00
7378;DHT22;3730;50.856;12.776;2024-03-29T21:52:30;12.80;1.00
7378;DHT22;3730;50.856;12.776;2024-03-29T21:54:55;12.80;1.00
7378;DHT22;3730;50.856;12.776;2024-03-29T21:57:21;12.90;1.00
7378;DHT22;3730;50.856;12.776;2024-03-29T21:59:46;12.80;1.00
7378;DHT22;3730;50.856;12.776;2024-03-29T22:02:12;12.70;1.00
7378;DHT22;3730;50.856;12.776;2024-03-29T22:04:40;12.90;1.00
7378;DHT22;3730;50.856;12.776;2024-03-29T22:07:05;12.70;1.00
7378;DHT22;3730;50.856;12.776;2024-03-29T22:09:32;12.80;1.00
7378;DHT22;3730;50.856;12.776;2024-03-29T22:11:58;12.80;1.00
7378;DHT22;3730;50.856;12.776;2024-03-29T22:14:24;13.10;1.00
7378;DHT22;3730;50.856;12.776;2024-03-29T22:16:53;13.00;1.00
7378;DHT22;3730;50.856;12.776;2024-03-29T22:19:19;12.80;1.00
7378;DHT22;3730;50.856;12.776;2024-03-29T22:21:44;12.70;1.00
7378;DHT22;3730;50.856;12.776;2024-03-29T22:24:10;12.90;1.00
7378;DHT22;3730;50.856;12.776;2024-03-29T22:26:37;13.00;1.00
7378;DHT22;3730;50.856;12.776;2024-03-29T22:31:29;12.60;1.00
7378;DHT22;3730;50.856;12.776;2024-03-29T22:33:55;12.80;1.00
7378;DHT22;3730;50.856;12.776;2024-03-29T22:36:33;12.60;1.00
7378;DHT22;3730;50.856;12.776;2024-03-29T22:39:02;12.50;1.00
7378;DHT22;3730;50.856;12.776;2024-03-29T22:41:28;12.70;1.00
7378;DHT22;3730;50.856;12.776;2024-03-29T22:43:55;12.30;1.00
7378;DHT22;3730;50.856;12.776;2024-03-29T22:48:46;12.30;1.00
7378;DHT22;3730;50.856;12.776;2024-03-29T22:51:12;12.50;1.00
7378;DHT22;3730;50.856;12.776;2024-03-29T22:53:37;12.40;1.00
7378;DHT22;3730;50.856;12.776;2024-03-29T22:56:03;12.30;1.00
7378;DHT22;3730;50.856;12.776;2024-03-29T22:58:29;12.30;1.00
7378;DHT22;3730;50.856;12.776;2024-03-29T23:00:55;12.40;1.00
7378;DHT22;3730;50.856;12.776;2024-03-29T23:03:21;12.50;1.00
7378;DHT22;3730;50.856;12.776;2024-03-29T23:05:46;12.10;1.00
7378;DHT22;3730;50.856;12.776;2024-03-29T23:08:12;12.30;1.00
7378;DHT22;3730;50.856;12.776;2024-03-29T23:10:38;12.10;1.00
7378;DHT22;3730;50.856;12.776;2024-03-29T23:13:03;12.10;1.00
7378;DHT22;3730;50.856;12.776;2024-03-29T23:20:21;12.30;1.00
7378;DHT22;3730;50.856;12.776;2024-03-29T23:22:46;12.20;1.00
7378;DHT22;3730;50.856;12.776;2024-03-29T23:25:12;12.00;1.00
7378;DHT22;3730;50.856;12.776;2024-03-29T23:27:37;12.10;1.00
7378;DHT22;3730;50.856;12.776;2024-03-29T23:30:04;12.20;1.00
7378;DHT22;3730;50.856;12.776;2024-03-29T23:32:30;12.10;1.00
7378;DHT22;3730;50.856;12.776;2024-03-29T23:34:56;11.90;1.00
7378;DHT22;3730;50.856;12.776;2024-03-29T23:37:22;12.00;1.00
7378;DHT22;3730;50.856;12.776;2024-03-29T23:39:48;11.80;1.00
7378;DHT22;3730;50.856;12.776;2024-03-29T23:42:14;12.10;1.00
7378;DHT22;3730;50.856;12.776;2024-03-29T23:47:06;11.90;1.00
7378;DHT22;3730;50.856;12.776;2024-03-29T23:49:34;12.00;1.00
7378;DHT22;3730;50.856;12.776;2024-03-29T23:52:00;11.80;1.00
7378;DHT22;3730;50.856;12.776;2024-03-29T23:54:25;11.90;1.00
7378;DHT22;3730;50.856;12.776;2024-03-29T23:56:51;12.10;1.00
7378;DHT22;3730;50.856;12.776;2024-03-29T23:59:17;12.00;1.00
